Time;durP1;ratioP1;P1;durP2;ratioP2;P2;SDS_P1;SDS_P2;PMS_P1;PMS_P2;Temp;Humidity;BMP_temperature;BMP_pressure;BME280_temperature;BME280_humidity;BME280_pressure;Samples;Min_cycle;Max_cycle;Signal;HPM_P1;HPM_P2
2022/04/19 00:00:23;;;;;;;10.20;5.68;;;;;;;7.47;100.00;101612.22;10344210;28;20069;-77
2022/04/19 00:05:23;;;;;;;10.43;6.53;;;;;;;7.38;100.00;101597.91;10307128;28;20035;-77
2022/04/19 00:10:26;;;;;;;10.70;6.32;;;;;;;7.27;100.00;101593.09;10307006;28;20056;-77
2022/04/19 00:15:28;;;;;;;11.38;5.95;;;;;;;7.19;100.00;101599.66;10322325;28;20039;-77
2022/04/19 00:20:29;;;;;;;11.60;6.00;;;;;;;7.05;100.00;101589.78;10307517;28;20050;-77
2022/04/19 00:25:30;;;;;;;12.32;5.55;;;;;;;6.96;100.00;101591.88;10312378;28;20031;-77
2022/04/19 00:30:31;;;;;;;12.48;6.93;;;;;;;6.86;100.00;101594.22;10340717;28;20073;-78
2022/04/19 00:35:31;;;;;;;9.15;6.13;;;;;;;6.80;100.00;101581.38;10345354;28;20407;-78
2022/04/19 00:40:32;;;;;;;12.23;6.03;;;;;;;6.86;100.00;101589.59;10345334;28;20038;-77
2022/04/19 00:45:34;;;;;;;9.60;5.78;;;;;;;6.73;100.00;101559.50;10305974;28;20035;-77
2022/04/19 00:50:34;;;;;;;10.80;6.13;;;;;;;6.75;100.00;101572.97;10305415;28;20046;-77
2022/04/19 00:55:35;;;;;;;10.30;5.72;;;;;;;6.70;100.00;101572.75;10312767;28;20096;-77
2022/04/19 01:00:35;;;;;;;10.05;5.40;;;;;;;6.62;100.00;101565.63;10345230;28;20046;-77
2022/04/19 01:05:36;;;;;;;13.73;6.05;;;;;;;6.41;100.00;101539.31;10344963;28;20026;-77
2022/04/19 01:10:37;;;;;;;11.10;6.25;;;;;;;6.42;100.00;101557.41;10338490;28;20110;-77
2022/04/19 01:15:41;;;;;;;12.13;5.95;;;;;;;6.36;100.00;101561.81;10344499;28;20041;-77
2022/04/19 01:20:42;;;;;;;10.25;6.32;;;;;;;6.31;100.00;101568.97;10345322;28;20041;-76
2022/04/19 01:25:42;;;;;;;9.90;5.97;;;;;;;6.18;100.00;101567.91;10340917;28;20046;-76
2022/04/19 01:30:43;;;;;;;11.30;6.55;;;;;;;5.93;100.00;101539.44;10313656;28;20046;-77
2022/04/19 01:35:43;;;;;;;11.93;5.72;;;;;;;5.94;100.00;101565.72;10328496;28;20035;-77
2022/04/19 01:40:44;;;;;;;10.52;6.38;;;;;;;5.83;100.00;101568.00;10312981;28;20430;-77
2022/04/19 01:45:44;;;;;;;11.10;6.22;;;;;;;5.74;100.00;101577.44;10313217;28;20034;-77
2022/04/19 01:50:45;;;;;;;9.52;6.18;;;;;;;5.64;100.00;101572.38;10312017;28;20038;-77
2022/04/19 01:55:46;;;;;;;10.00;5.47;;;;;;;5.59;100.00;101577.59;10313187;28;20023;-77
2022/04/19 02:00:47;;;;;;;10.50;6.95;;;;;;;5.46;100.00;101559.25;10311886;28;20434;-77
2022/04/19 02:05:47;;;;;;;12.35;6.55;;;;;;;5.46;100.00;101570.19;10312544;28;20023;-77
2022/04/19 02:10:48;;;;;;;10.48;6.57;;;;;;;5.41;100.00;101577.28;10311719;28;20050;-77
2022/04/19 02:15:48;;;;;;;13.52;6.82;;;;;;;5.37;100.00;101574.13;10311251;28;20102;-77
2022/04/19 02:20:49;;;;;;;11.48;6.25;;;;;;;5.33;100.00;101578.31;10312465;28;20031;-77
2022/04/19 02:25:52;;;;;;;11.73;7.07;;;;;;;5.30;100.00;101576.00;10325009;28;20038;-77
2022/04/19 02:30:52;;;;;;;13.18;7.07;;;;;;;5.26;100.00;101577.44;10309076;28;20043;-77
2022/04/19 02:35:53;;;;;;;10.68;6.78;;;;;;;5.23;100.00;101575.13;10310946;28;20038;-76
2022/04/19 02:40:53;;;;;;;11.00;6.30;;;;;;;5.20;100.00;101591.91;10310766;28;20566;-77
2022/04/19 02:45:54;;;;;;;12.18;6.82;;;;;;;5.20;100.00;101581.81;10311581;28;20042;-77
2022/04/19 02:50:54;;;;;;;16.25;7.40;;;;;;;5.30;100.00;101573.25;10311322;28;20043;-77
2022/04/19 02:55:55;;;;;;;12.02;6.53;;;;;;;5.40;100.00;101571.00;10328839;28;20061;-77
2022/04/19 03:00:55;;;;;;;11.45;6.90;;;;;;;5.44;100.00;101572.28;10349603;28;20449;-77
2022/04/19 03:05:57;;;;;;;12.65;6.80;;;;;;;5.45;100.00;101567.66;10348875;28;20049;-77
2022/04/19 03:10:58;;;;;;;10.75;6.53;;;;;;;5.44;100.00;101572.28;10349383;28;20054;-78
2022/04/19 03:15:59;;;;;;;12.63;6.93;;;;;;;5.36;100.00;101553.34;10309605;28;20058;-78
2022/04/19 03:20:59;;;;;;;11.63;6.20;;;;;;;5.37;100.00;101565.94;10310050;28;20042;-77
2022/04/19 03:31:19;;;;;;;10.27;6.65;;;;;;;5.30;100.00;101578.72;10318587;28;20039;-77
2022/04/19 03:36:20;;;;;;;13.60;6.90;;;;;;;5.23;100.00;101586.06;10307782;28;20031;-76
2022/04/19 03:41:21;;;;;;;11.82;7.07;;;;;;;5.01;100.00;101567.00;10306477;28;20050;-76
2022/04/19 03:46:21;;;;;;;11.85;6.75;;;;;;;5.00;100.00;101591.75;10323525;28;20440;-76
2022/04/19 03:51:22;;;;;;;12.55;6.95;;;;;;;4.92;100.00;101583.72;10308658;28;20031;-77
2022/04/19 03:56:22;;;;;;;15.68;7.55;;;;;;;4.82;100.00;101567.72;10301366;28;20038;-77
2022/04/19 04:01:22;;;;;;;13.73;7.40;;;;;;;4.77;100.00;101583.84;10348271;28;20053;-77
2022/04/19 04:06:25;;;;;;;15.50;8.43;;;;;;;4.71;100.00;101587.34;10348119;28;20027;-77
2022/04/19 04:11:25;;;;;;;17.67;7.65;;;;;;;4.64;100.00;101595.50;10347775;28;20050;-77
2022/04/19 04:16:26;;;;;;;16.83;8.90;;;;;;;4.61;100.00;101593.16;10347033;28;20042;-76
2022/04/19 04:21:27;;;;;;;16.15;8.23;;;;;;;4.47;100.00;101570.41;10348461;28;20489;-77
2022/04/19 04:26:27;;;;;;;15.68;8.13;;;;;;;4.58;100.00;101594.38;10326830;28;20045;-77
2022/04/19 04:31:27;;;;;;;16.05;8.95;;;;;;;4.56;100.00;101593.75;10304541;28;20031;-77
2022/04/19 04:36:28;;;;;;;15.73;8.05;;;;;;;4.59;100.00;101601.56;10306130;28;20054;-77
2022/04/19 04:41:28;;;;;;;15.43;8.77;;;;;;;4.46;100.00;101585.06;10305542;28;20035;-77
2022/04/19 04:51:48;;;;;;;14.35;8.98;;;;;;;4.60;100.00;101608.69;10306884;28;20049;-76
2022/04/19 04:56:48;;;;;;;19.48;9.30;;;;;;;4.60;100.00;101600.50;10306188;28;20042;-77
2022/04/19 05:01:49;;;;;;;16.45;8.57;;;;;;;4.68;100.00;101604.97;10324067;28;20034;-77
2022/04/19 05:06:49;;;;;;;17.70;9.40;;;;;;;4.75;100.00;101605.84;10314266;28;20031;-77
2022/04/19 05:11:52;;;;;;;19.33;9.55;;;;;;;4.83;100.00;101608.44;10313930;28;20063;-77
2022/04/19 05:16:53;;;;;;;16.98;9.02;;;;;;;4.80;100.00;101588.91;10329308;28;20058;-77
2022/04/19 05:21:53;;;;;;;15.00;7.60;;;;;;;5.09;100.00;101617.03;10314058;28;20046;-77
2022/04/19 05:26:54;;;;;;;16.83;8.65;;;;;;;4.90;100.00;101564.84;10312994;28;20483;-77
2022/04/19 05:31:54;;;;;;;14.02;8.18;;;;;;;5.39;100.00;101617.63;10328323;28;20042;-77
2022/04/19 05:36:55;;;;;;;13.23;7.40;;;;;;;5.59;100.00;101612.28;10313423;28;20026;-77
2022/04/19 05:41:55;;;;;;;15.85;8.15;;;;;;;5.83;100.00;101614.47;10312178;28;20039;-77
2022/04/19 05:46:56;;;;;;;18.02;7.80;;;;;;;6.12;100.00;101615.22;10313202;28;20402;-77
2022/04/19 05:51:56;;;;;;;12.82;7.28;;;;;;;6.58;100.00;101622.66;10313350;28;20475;-79
2022/04/19 05:56:57;;;;;;;13.07;6.72;;;;;;;6.94;100.00;101632.31;10312743;28;20411;-80
2022/04/19 06:07:16;;;;;;;19.40;11.77;;;;;;;7.57;100.00;101625.47;10311014;28;20094;-79
2022/04/19 06:12:17;;;;;;;12.43;7.88;;;;;;;7.83;100.00;101625.38;10309958;28;20051;-79
2022/04/19 06:17:18;;;;;;;10.55;6.82;;;;;;;8.12;100.00;101620.34;10323810;28;20077;-78
2022/04/19 06:22:18;;;;;;;12.52;5.80;;;;;;;8.36;100.00;101615.16;10351761;28;20118;-80
2022/04/19 06:27:19;;;;;;;11.55;6.07;;;;;;;8.65;100.00;101622.78;10351797;28;20375;-79
2022/04/19 06:32:19;;;;;;;12.13;6.60;;;;;;;8.91;100.00;101629.13;10351668;28;20029;-79
2022/04/19 06:37:22;;;;;;;10.30;7.00;;;;;;;9.14;100.00;101636.72;10338834;28;20045;-79
2022/04/19 06:42:24;;;;;;;8.63;5.40;;;;;;;9.40;100.00;101635.59;10311332;28;20047;-78
2022/04/19 06:47:25;;;;;;;10.35;5.68;;;;;;;9.67;100.00;101640.78;10311446;28;20039;-78
2022/04/19 06:52:26;;;;;;;10.35;6.40;;;;;;;10.08;100.00;101633.72;10293358;28;20039;-79
2022/04/19 06:57:27;;;;;;;11.45;6.38;;;;;;;10.40;100.00;101634.38;10321158;28;20098;-80
2022/04/19 07:02:27;;;;;;;14.40;8.82;;;;;;;10.43;100.00;101628.38;10368389;28;20093;-79
2022/04/19 07:07:27;;;;;;;13.10;6.30;;;;;;;10.58;100.00;101629.84;10390173;28;20026;-79
2022/04/19 07:12:28;;;;;;;8.85;4.72;;;;;;;10.86;100.00;101631.94;10389650;28;20050;-79
2022/04/19 07:17:29;;;;;;;14.52;6.10;;;;;;;11.08;100.00;101630.28;10385727;28;20101;-79
2022/04/19 07:27:48;;;;;;;9.00;5.10;;;;;;;11.31;100.00;101625.84;10387651;28;20042;-78
2022/04/19 07:32:49;;;;;;;10.07;3.70;;;;;;;11.50;99.36;101621.03;10387730;28;20038;-79
2022/04/19 07:37:49;;;;;;;9.23;4.00;;;;;;;11.59;94.67;101622.31;10380948;28;20034;-79
2022/04/19 07:42:50;;;;;;;5.88;3.65;;;;;;;11.71;96.36;101627.81;10385453;28;20045;-78
2022/04/19 07:47:51;;;;;;;5.63;3.30;;;;;;;11.91;94.58;101633.78;10388687;28;20022;-76
2022/04/19 07:52:51;;;;;;;5.93;4.10;;;;;;;12.07;94.30;101631.31;10387957;28;20358;-79
2022/04/19 07:57:52;;;;;;;8.40;2.88;;;;;;;12.23;92.98;101618.66;10388073;28;20030;-79
2022/04/19 08:02:52;;;;;;;2.75;1.95;;;;;;;12.42;85.23;101622.03;10342107;28;20126;-78
2022/04/19 08:07:52;;;;;;;4.88;3.17;;;;;;;12.52;87.86;101627.75;10308279;28;20037;-77
2022/04/19 08:12:53;;;;;;;5.55;2.85;;;;;;;12.84;88.02;101635.50;10307026;28;20062;-82
2022/04/19 08:17:53;;;;;;;3.33;2.10;;;;;;;13.21;79.54;101616.47;10307917;28;20046;-81
2022/04/19 08:22:54;;;;;;;3.38;1.90;;;;;;;13.57;77.46;101599.56;10305852;28;20069;-84
2022/04/19 08:27:55;;;;;;;7.60;1.48;;;;;;;13.84;76.10;101605.16;10306886;28;20435;-84
2022/04/19 08:32:56;;;;;;;4.82;1.85;;;;;;;13.84;74.43;101597.66;10304095;28;20082;-84
2022/04/19 08:37:56;;;;;;;4.72;2.25;;;;;;;14.09;74.90;101610.13;10316179;28;20403;-82
2022/04/19 08:42:57;;;;;;;4.55;1.83;;;;;;;14.21;72.91;101610.81;10340561;28;20034;-75
2022/04/19 08:47:59;;;;;;;3.67;1.85;;;;;;;13.84;75.03;101567.22;10344750;28;20030;-76
2022/04/19 08:58:19;;;;;;;2.90;1.50;;;;;;;14.43;74.29;101621.03;10346763;28;20116;-76
2022/04/19 09:03:20;;;;;;;2.72;1.80;;;;;;;14.58;73.70;101618.41;10345328;28;20034;-76
2022/04/19 09:08:21;;;;;;;2.88;1.90;;;;;;;14.72;71.97;101616.88;10347258;28;20030;-77
2022/04/19 09:13:21;;;;;;;3.80;1.80;;;;;;;14.89;70.73;101604.81;10344820;28;20059;-76
2022/04/19 09:18:29;;;;;;;3.83;1.73;;;;;;;14.90;69.39;101603.72;10344546;28;20046;-77
2022/04/19 09:23:31;;;;;;;5.85;1.70;;;;;;;15.01;70.13;101610.19;10329280;28;20097;-75
2022/04/19 09:28:34;;;;;;;5.75;2.15;;;;;;;15.13;68.86;101610.81;10345927;28;20038;-77
2022/04/19 09:33:34;;;;;;;2.70;1.60;;;;;;;15.21;69.31;101617.78;10345960;28;20069;-76
2022/04/19 09:38:44;;;;;;;5.57;1.58;;;;;;;15.06;67.59;101607.44;10341010;28;20042;-78
2022/04/19 09:43:44;;;;;;;4.10;1.98;;;;;;;15.26;67.08;101601.19;10304175;28;20528;-73
2022/04/19 09:48:45;;;;;;;4.13;1.52;;;;;;;15.61;66.38;101599.72;10290953;28;20273;-74
2022/04/19 09:53:46;;;;;;;4.60;1.80;;;;;;;15.90;67.63;101597.38;10295535;28;20026;-75
2022/04/19 09:58:48;;;;;;;2.13;1.63;;;;;;;16.32;67.58;101602.72;10313020;28;20029;-75
2022/04/19 10:09:08;;;;;;;3.08;1.83;;;;;;;16.08;64.18;101502.44;10297946;28;20085;-74
2022/04/19 10:14:09;;;;;;;3.47;1.98;;;;;;;16.98;66.19;101601.13;10310049;28;20055;-74
2022/04/19 10:19:09;;;;;;;4.40;2.30;;;;;;;17.10;62.43;101582.19;10363699;28;20058;-74
2022/04/19 10:24:12;;;;;;;3.83;2.30;;;;;;;17.07;63.26;101585.53;10390312;28;20032;-74
2022/04/19 10:29:19;;;;;;;3.80;2.15;;;;;;;17.11;63.03;101589.41;10390864;28;20041;-74
2022/04/19 10:34:27;;;;;;;6.63;2.35;;;;;;;17.22;62.24;101593.03;10391455;28;20037;-75
2022/04/19 10:39:31;;;;;;;7.65;2.15;;;;;;;17.40;60.16;101580.44;10391695;28;20034;-75
2022/04/19 10:44:35;;;;;;;3.05;2.00;;;;;;;17.33;58.61;101574.34;10386596;28;20034;-75
2022/04/19 10:49:48;;;;;;;4.05;2.13;;;;;;;17.40;59.63;101574.88;10388532;28;20059;-74
2022/04/19 10:55:04;;;;;;;5.60;1.52;;;;;;;17.53;58.75;101559.53;10389447;28;20030;-74
2022/04/19 11:00:26;;;;;;;3.10;1.20;;;;;;;17.43;59.51;101562.34;10386703;28;20065;-74
2022/04/19 11:05:47;;;;;;;2.90;1.95;;;;;;;17.84;58.27;101557.47;10384346;28;20026;-74
2022/04/19 11:10:49;;;;;;;3.08;1.80;;;;;;;17.83;58.30;101561.34;10385887;28;20030;-75
2022/04/19 11:16:08;;;;;;;2.50;1.80;;;;;;;18.12;58.08;101547.53;10343525;28;20053;-74
2022/04/19 11:21:11;;;;;;;6.78;1.95;;;;;;;18.49;56.01;101548.09;10309852;28;20067;-74
2022/04/19 11:26:30;;;;;;;2.95;1.92;;;;;;;18.58;57.96;101554.72;10309730;28;20109;-74
2022/04/19 11:31:30;;;;;;;2.83;1.80;;;;;;;18.51;55.95;101532.75;10309229;28;20090;-77
2022/04/19 11:36:31;;;;;;;3.10;1.95;;;;;;;18.52;55.03;101533.56;10327711;28;20116;-75
2022/04/19 11:46:51;;;;;;;3.03;1.75;;;;;;;18.63;55.52;101540.72;10343685;28;20073;-77
2022/04/19 11:52:13;;;;;;;4.80;2.00;;;;;;;19.14;54.26;101545.00;10338474;28;20032;-73
2022/04/19 11:57:13;;;;;;;2.95;1.58;;;;;;;19.89;54.41;101549.97;10347114;28;20026;-72
2022/04/19 12:02:18;;;;;;;4.35;2.25;;;;;;;20.44;51.42;101537.38;10345414;28;20030;-76
2022/04/19 12:07:20;;;;;;;3.42;1.77;;;;;;;20.87;50.42;101526.03;10346659;28;20050;-72
2022/04/19 12:12:21;;;;;;;3.70;1.80;;;;;;;20.70;50.72;101537.81;10359057;28;20049;-74
2022/04/19 12:17:22;;;;;;;2.58;1.65;;;;;;;21.06;48.17;101509.16;10371027;28;20034;-73
2022/04/19 12:22:23;;;;;;;4.53;1.92;;;;;;;21.90;47.61;101510.75;10386688;28;20038;-72
2022/04/19 12:27:28;;;;;;;2.80;1.50;;;;;;;22.22;48.03;101498.50;10386530;28;20038;-75
2022/04/19 12:32:49;;;;;;;6.05;2.10;;;;;;;22.24;46.29;101506.63;10370335;28;20048;-75
2022/04/19 12:38:03;;;;;;;9.35;2.38;;;;;;;22.71;45.69;101502.31;10379932;28;20479;-76
2022/04/19 12:43:04;;;;;;;2.40;1.60;;;;;;;22.87;46.60;101505.53;10346054;28;20518;-75
2022/04/19 12:48:04;;;;;;;2.72;1.80;;;;;;;22.49;45.83;101494.75;10346774;28;20038;-77
2022/04/19 12:53:20;;;;;;;3.30;1.70;;;;;;;22.64;44.35;101479.50;10347063;28;20042;-77
2022/04/19 12:58:20;;;;;;;2.93;1.93;;;;;;;22.47;44.20;101473.75;10378880;28;20064;-78
2022/04/19 13:03:21;;;;;;;4.30;2.13;;;;;;;22.96;43.47;101469.91;10385262;28;20025;-78
2022/04/19 13:13:40;;;;;;;2.92;2.13;;;;;;;23.15;45.70;101475.31;10383025;28;20056;-74
2022/04/19 13:18:41;;;;;;;7.00;2.63;;;;;;;23.39;42.18;101461.97;10379553;28;20049;-69
2022/04/19 13:23:41;;;;;;;5.57;2.53;;;;;;;23.47;43.07;101461.97;10391652;28;20037;-77
2022/04/19 13:28:42;;;;;;;6.32;2.80;;;;;;;22.83;44.36;101464.41;10395186;28;20030;-73
2022/04/19 13:33:42;;;;;;;5.07;2.95;;;;;;;22.08;44.95;101473.31;10395212;28;20034;-73
2022/04/19 13:38:43;;;;;;;5.85;3.47;;;;;;;22.38;45.01;101461.69;10395427;28;20030;-73
2022/04/19 13:43:45;;;;;;;4.75;2.15;;;;;;;22.37;43.68;101446.81;10393983;28;20454;-73
2022/04/19 13:48:46;;;;;;;6.60;2.65;;;;;;;22.71;43.38;101459.38;10316216;28;20043;-71
2022/04/19 13:53:46;;;;;;;3.47;2.08;;;;;;;22.43;43.16;101445.53;10312950;28;20038;-71
2022/04/19 13:58:47;;;;;;;3.33;2.22;;;;;;;22.57;41.75;101453.84;10313075;28;20046;-71
2022/04/19 14:03:48;;;;;;;5.40;2.70;;;;;;;22.33;43.16;101452.25;10312238;28;20518;-74
2022/04/19 14:08:48;;;;;;;5.07;2.70;;;;;;;22.44;43.79;101457.59;10310992;28;20039;-74
2022/04/19 14:13:49;;;;;;;6.22;3.15;;;;;;;23.10;42.65;101463.38;10311956;28;20039;-74
2022/04/19 14:18:49;;;;;;;6.60;3.03;;;;;;;23.07;42.51;101447.16;10311783;28;20043;-73
2022/04/19 14:23:50;;;;;;;5.00;3.10;;;;;;;22.94;42.24;101446.09;10312227;28;20257;-74
2022/04/19 14:34:14;;;;;;;9.15;2.58;;;;;;;22.71;41.72;101434.13;10319376;28;20050;-72
2022/04/19 14:39:14;;;;;;;6.18;3.20;;;;;;;22.64;42.47;101462.66;10325136;28;20082;-75
2022/04/19 14:44:15;;;;;;;5.72;3.20;;;;;;;22.98;42.48;101455.53;10331398;28;20364;-76
2022/04/19 14:49:15;;;;;;;4.60;3.08;;;;;;;23.07;42.93;101459.25;10350489;28;20317;-77
2022/04/19 14:54:16;;;;;;;5.53;2.97;;;;;;;23.36;42.43;101461.47;10351109;28;20066;-77
2022/04/19 14:59:16;;;;;;;3.60;2.50;;;;;;;23.97;41.38;101455.91;10350914;28;20038;-77
2022/04/19 15:04:17;;;;;;;6.65;3.35;;;;;;;23.87;40.59;101458.25;10351311;28;20041;-77
2022/04/19 15:09:17;;;;;;;7.60;3.10;;;;;;;24.18;40.48;101458.06;10350101;28;20041;-75
2022/04/19 15:14:19;;;;;;;6.30;3.38;;;;;;;23.75;40.47;101427.94;10357564;28;20038;-73
2022/04/19 15:19:20;;;;;;;4.47;2.75;;;;;;;23.74;39.49;101449.59;10379051;28;20049;-72
2022/04/19 15:24:22;;;;;;;4.13;2.55;;;;;;;24.34;39.29;101453.56;10388401;28;20044;-72
2022/04/19 15:29:25;;;;;;;3.53;2.75;;;;;;;24.70;38.80;101446.72;10389658;28;20065;-73
2022/04/19 15:34:26;;;;;;;4.57;2.92;;;;;;;24.89;39.50;101431.41;10385847;28;20465;-73
2022/04/19 15:39:27;;;;;;;8.52;3.92;;;;;;;24.29;39.53;101439.69;10347851;28;20042;-73
2022/04/19 15:44:27;;;;;;;7.30;3.72;;;;;;;24.19;39.46;101442.03;10348207;28;20039;-75
2022/04/19 15:49:27;;;;;;;4.25;2.88;;;;;;;24.27;39.54;101439.19;10321446;28;20047;-73
2022/04/19 15:54:28;;;;;;;5.57;3.47;;;;;;;24.81;39.63;101452.00;10307701;28;20548;-72
2022/04/19 15:59:28;;;;;;;6.13;3.92;;;;;;;24.76;39.92;101456.63;10308553;28;20057;-73
2022/04/19 16:04:29;;;;;;;6.80;4.63;;;;;;;25.09;39.72;101449.53;10308629;28;20035;-72
2022/04/19 16:09:29;;;;;;;7.15;4.70;;;;;;;24.33;39.39;101453.88;10306559;28;20387;-73
2022/04/19 16:14:30;;;;;;;6.88;5.18;;;;;;;24.07;39.52;101451.13;10307111;28;20460;-73
2022/04/19 16:24:50;;;;;;;7.28;5.18;;;;;;;23.47;40.11;101455.53;10347779;28;20038;-73
2022/04/19 16:29:51;;;;;;;8.15;5.63;;;;;;;23.35;41.29;101459.81;10348477;28;20026;-73
2022/04/19 16:34:51;;;;;;;9.02;6.13;;;;;;;23.62;41.10;101462.66;10347499;28;20031;-73
2022/04/19 16:39:53;;;;;;;11.05;7.30;;;;;;;23.87;41.19;101470.31;10374833;28;20026;-72
2022/04/19 16:44:53;;;;;;;8.90;7.30;;;;;;;23.40;42.31;101472.91;10374748;28;20044;-74
2022/04/19 16:49:54;;;;;;;15.43;7.50;;;;;;;22.28;44.05;101488.84;10386052;28;20042;-73
2022/04/19 16:54:54;;;;;;;13.57;7.75;;;;;;;20.93;47.19;101494.00;10387068;28;20030;-73
2022/04/19 16:59:55;;;;;;;12.70;8.27;;;;;;;19.53;49.99;101514.09;10387073;28;20034;-73
2022/04/19 17:04:55;;;;;;;12.57;8.02;;;;;;;18.63;50.37;101504.47;10385935;28;20127;-73
2022/04/19 17:09:56;;;;;;;12.90;7.85;;;;;;;18.34;51.95;101510.88;10381672;28;20038;-77
2022/04/19 17:14:56;;;;;;;16.88;8.65;;;;;;;17.52;53.76;101533.63;10384222;28;20053;-75
2022/04/19 17:19:57;;;;;;;13.30;7.50;;;;;;;16.86;55.96;101556.09;10385856;28;20050;-74
2022/04/19 17:24:57;;;;;;;14.00;8.23;;;;;;;16.44;58.24;101562.75;10386093;28;20030;-74
2022/04/19 17:29:59;;;;;;;13.65;8.00;;;;;;;15.72;59.57;101573.69;10386507;28;20030;-74
2022/04/19 17:35:00;;;;;;;15.13;8.23;;;;;;;15.11;63.00;101572.25;10385134;28;20730;-73
2022/04/19 17:40:03;;;;;;;14.60;7.40;;;;;;;14.73;65.15;101574.19;10344522;28;20491;-75
2022/04/19 17:45:06;;;;;;;13.05;7.45;;;;;;;14.36;67.15;101587.97;10339451;28;20034;-74
2022/04/19 18:00:45;;;;;;;10.50;7.03;;;;;;;13.35;73.24;101586.53;10315467;28;20039;-73
2022/04/19 18:05:45;;;;;;;13.00;6.20;;;;;;;13.12;74.29;101605.00;10304354;28;20035;-74
2022/04/19 18:10:46;;;;;;;11.68;5.88;;;;;;;12.87;76.62;101610.13;10325093;28;20034;-74
2022/04/19 18:15:51;;;;;;;11.85;5.80;;;;;;;12.63;78.62;101618.59;10312080;28;20357;-73
2022/04/19 18:20:51;;;;;;;11.18;5.47;;;;;;;12.21;79.54;101588.53;10312149;28;20121;-75
2022/04/19 18:25:52;;;;;;;8.30;5.00;;;;;;;12.21;80.30;101631.88;10312041;28;20023;-73
2022/04/19 18:30:52;;;;;;;9.60;5.22;;;;;;;12.04;83.61;101637.34;10311518;28;20027;-74
2022/04/19 18:35:54;;;;;;;12.45;4.60;;;;;;;11.83;84.48;101636.06;10293626;28;20467;-75
2022/04/19 18:40:54;;;;;;;11.23;4.72;;;;;;;11.72;84.52;101646.06;10309279;28;20286;-74
2022/04/19 18:45:54;;;;;;;8.20;4.90;;;;;;;11.56;87.73;101658.66;10311038;28;20039;-72
2022/04/19 18:50:55;;;;;;;8.23;4.90;;;;;;;11.38;89.60;101656.03;10310960;28;20483;-72
2022/04/19 18:55:56;;;;;;;9.38;4.70;;;;;;;11.26;90.62;101661.56;10310557;28;20891;-72
2022/04/19 19:00:57;;;;;;;8.57;4.95;;;;;;;10.60;92.27;101589.97;10310078;28;20081;-73
2022/04/19 19:05:57;;;;;;;11.45;5.90;;;;;;;11.00;94.70;101683.00;10309603;28;20085;-73
2022/04/19 19:10:59;;;;;;;10.32;5.35;;;;;;;10.90;96.31;101699.25;10309251;28;20102;-73
2022/04/19 19:16:00;;;;;;;8.68;4.43;;;;;;;10.29;98.30;101615.84;10310218;28;20053;-73
2022/04/19 19:21:00;;;;;;;9.38;5.15;;;;;;;10.68;100.00;101698.97;10308956;28;20049;-72
2022/04/19 19:26:01;;;;;;;8.05;5.10;;;;;;;10.55;100.00;101713.78;10309298;28;20042;-72
2022/04/19 19:31:01;;;;;;;8.00;4.57;;;;;;;10.45;100.00;101702.47;10307933;28;20479;-73
2022/04/19 19:36:02;;;;;;;10.95;5.25;;;;;;;10.32;100.00;101714.50;10308511;28;20550;-73
2022/04/19 19:41:02;;;;;;;11.13;5.40;;;;;;;10.23;100.00;101716.72;10307180;28;20050;-73
2022/04/19 19:46:03;;;;;;;11.30;5.07;;;;;;;10.14;100.00;101715.34;10327792;28;20034;-72
2022/04/19 19:51:04;;;;;;;10.75;4.78;;;;;;;10.05;100.00;101725.00;10347706;28;20046;-72
2022/04/19 19:56:06;;;;;;;12.35;4.57;;;;;;;9.99;100.00;101725.91;10347173;28;20042;-72
2022/04/19 20:01:08;;;;;;;9.73;4.10;;;;;;;9.96;100.00;101726.34;10347848;28;20073;-74
2022/04/19 20:06:09;;;;;;;10.98;4.65;;;;;;;9.92;100.00;101730.63;10346121;28;20105;-73
2022/04/19 20:11:13;;;;;;;8.82;4.05;;;;;;;9.83;100.00;101736.44;10347350;28;20126;-72
2022/04/19 20:16:14;;;;;;;6.22;4.03;;;;;;;9.68;100.00;101724.97;10330959;28;20057;-72
2022/04/19 20:21:14;;;;;;;7.43;3.70;;;;;;;9.71;100.00;101746.50;10335719;28;20035;-72
2022/04/19 20:26:15;;;;;;;7.88;4.13;;;;;;;9.62;100.00;101745.97;10303026;28;20026;-72
2022/04/19 20:31:16;;;;;;;4.78;3.08;;;;;;;9.55;100.00;101747.09;10303738;28;20038;-73
2022/04/19 20:36:17;;;;;;;8.82;4.03;;;;;;;9.47;100.00;101746.31;10329489;28;20030;-73
2022/04/19 20:41:17;;;;;;;8.05;3.53;;;;;;;9.37;100.00;101759.72;10345128;28;20030;-73
2022/04/19 20:46:22;;;;;;;5.18;3.50;;;;;;;9.25;100.00;101758.78;10345193;28;20037;-73
2022/04/19 20:51:23;;;;;;;6.38;3.03;;;;;;;9.11;100.00;101758.03;10327648;28;20029;-73
2022/04/19 20:56:24;;;;;;;6.13;3.67;;;;;;;9.02;100.00;101767.63;10342783;28;20102;-73
2022/04/19 21:01:24;;;;;;;5.05;2.72;;;;;;;8.93;100.00;101788.16;10327325;28;20042;-76
2022/04/19 21:06:24;;;;;;;4.43;2.72;;;;;;;8.78;100.00;101780.22;10342867;28;20047;-76
2022/04/19 21:11:25;;;;;;;5.32;2.53;;;;;;;8.62;100.00;101765.97;10315222;28;20059;-75
2022/04/19 21:16:25;;;;;;;4.18;2.10;;;;;;;8.50;100.00;101778.69;10305537;28;20074;-76
2022/04/19 21:21:28;;;;;;;5.82;2.88;;;;;;;8.33;100.00;101766.47;10305423;28;20039;-76
2022/04/19 21:26:28;;;;;;;4.22;2.90;;;;;;;8.28;100.00;101772.63;10304664;28;20035;-76
2022/04/19 21:31:29;;;;;;;3.47;2.45;;;;;;;8.18;100.00;101780.47;10305760;28;20051;-73
2022/04/19 21:36:30;;;;;;;5.70;2.78;;;;;;;8.01;100.00;101769.13;10305486;28;20026;-75
2022/04/19 21:41:30;;;;;;;3.97;2.50;;;;;;;7.95;100.00;101764.50;10304243;28;20042;-76
2022/04/19 21:46:31;;;;;;;3.92;2.40;;;;;;;7.89;100.00;101782.66;10312634;28;20046;-76
2022/04/19 21:51:31;;;;;;;5.93;2.60;;;;;;;7.74;100.00;101769.19;10313569;28;20364;-76
2022/04/19 21:56:31;;;;;;;4.07;2.67;;;;;;;7.70;100.00;101772.59;10311724;28;20498;-76
2022/04/19 22:01:32;;;;;;;4.25;2.30;;;;;;;7.56;100.00;101772.59;10312922;28;20043;-75
2022/04/19 22:06:33;;;;;;;4.60;2.55;;;;;;;7.59;100.00;101772.16;10311053;28;20031;-76
2022/04/19 22:11:33;;;;;;;3.55;2.20;;;;;;;7.49;100.00;101771.75;10311149;28;20065;-75
2022/04/19 22:16:37;;;;;;;3.38;2.38;;;;;;;7.48;100.00;101787.38;10312876;28;20054;-75
2022/04/19 22:21:38;;;;;;;5.03;2.95;;;;;;;7.38;100.00;101792.41;10334579;28;20462;-75
2022/04/19 22:26:38;;;;;;;4.38;2.50;;;;;;;7.28;100.00;101792.84;10351443;28;20035;-76
2022/04/19 22:31:39;;;;;;;4.68;2.17;;;;;;;7.17;100.00;101798.94;10334460;28;20030;-76
2022/04/19 22:36:39;;;;;;;5.78;2.67;;;;;;;7.05;100.00;101804.19;10350920;28;20034;-76
2022/04/19 22:41:40;;;;;;;4.05;2.55;;;;;;;6.98;100.00;101818.91;10347313;28;20122;-74
2022/04/19 22:46:40;;;;;;;6.20;2.83;;;;;;;6.85;100.00;101812.34;10351100;28;20035;-76
2022/04/19 22:51:41;;;;;;;5.63;2.78;;;;;;;6.39;100.00;101746.56;10351288;28;20034;-76
2022/04/19 22:56:42;;;;;;;4.75;3.50;;;;;;;6.67;100.00;101818.41;10349577;28;20042;-76
2022/04/19 23:01:43;;;;;;;5.85;3.08;;;;;;;6.67;100.00;101823.03;10350722;28;20109;-76
2022/04/19 23:06:43;;;;;;;5.03;3.30;;;;;;;6.57;100.00;101817.94;10344530;28;20043;-76
2022/04/19 23:11:44;;;;;;;4.88;3.70;;;;;;;6.50;100.00;101817.06;10308542;28;20074;-76
2022/04/19 23:16:44;;;;;;;5.95;3.60;;;;;;;6.46;100.00;101830.31;10310715;28;20059;-74
2022/04/19 23:21:44;;;;;;;6.45;3.80;;;;;;;6.35;100.00;101824.59;10308899;28;20038;-74
2022/04/19 23:32:06;;;;;;;6.72;3.70;;;;;;;6.27;100.00;101836.53;10308482;28;20035;-76
2022/04/19 23:37:06;;;;;;;6.32;4.07;;;;;;;6.23;100.00;101841.56;10307699;28;20039;-76
2022/04/19 23:42:07;;;;;;;7.38;3.53;;;;;;;6.06;100.00;101834.75;10307492;28;20043;-76
2022/04/19 23:47:07;;;;;;;6.30;3.20;;;;;;;5.90;100.00;101807.69;10332079;28;20037;-76
2022/04/19 23:52:08;;;;;;;6.47;3.90;;;;;;;5.87;100.00;101825.34;10324079;28;20459;-76
2022/04/19 23:57:08;;;;;;;5.85;2.92;;;;;;;5.98;100.00;101837.63;10306860;28;20404;-77
